createdAt,value
2023-04-11T00:02:23.126Z,34.22
2023-04-11T00:04:49.894Z,38.08
2023-04-11T00:07:16.562Z,34.58
2023-04-11T00:09:44.512Z,36.47
2023-04-11T00:12:11.022Z,34.58
2023-04-11T00:14:38.210Z,30.63
2023-04-11T00:17:06.031Z,33.70
2023-04-11T00:19:33.364Z,36.65
2023-04-11T00:22:00.492Z,34.72
2023-04-11T00:24:27.555Z,36.92
2023-04-11T00:29:13.285Z,27.85
2023-04-11T00:31:39.971Z,23.17
2023-04-11T00:34:06.570Z,30.45
2023-04-11T00:36:33.296Z,43.30
2023-04-11T00:39:01.258Z,51.58
2023-04-11T00:41:27.999Z,59.95
2023-04-11T00:43:54.633Z,37.13
2023-04-11T00:46:21.946Z,46.60
2023-04-11T00:48:48.869Z,37.47
2023-04-11T00:51:15.988Z,41.70
2023-04-11T00:53:43.180Z,39.00
2023-04-11T00:56:11.157Z,37.78
2023-04-11T00:58:39.175Z,35.85
2023-04-11T01:01:09.450Z,40.08
2023-04-11T01:03:38.688Z,50.40
2023-04-11T01:06:07.164Z,56.05
2023-04-11T01:08:36.202Z,42.97
2023-04-11T01:11:03.761Z,41.13
2023-04-11T01:13:33.267Z,42.00
2023-04-11T01:16:00.819Z,48.95
2023-04-11T01:18:27.748Z,47.83
2023-04-11T01:20:55.030Z,38.75
2023-04-11T01:23:24.121Z,32.80
2023-04-11T01:25:51.642Z,38.28
2023-04-11T01:28:19.265Z,49.35
2023-04-11T01:30:46.117Z,57.20
2023-04-11T01:33:14.899Z,39.53
2023-04-11T01:35:41.946Z,39.05
2023-04-11T01:38:09.552Z,47.97
2023-04-11T01:40:37.965Z,46.85
2023-04-11T01:43:04.884Z,48.05
2023-04-11T01:45:31.953Z,46.88
2023-04-11T01:47:58.646Z,60.17
2023-04-11T01:50:25.810Z,62.63
2023-04-11T01:52:52.872Z,78.35
2023-04-11T01:55:19.497Z,56.35
2023-04-11T01:57:46.103Z,53.72
2023-04-11T02:00:13.924Z,73.88
2023-04-11T02:02:45.296Z,61.53
2023-04-11T02:05:12.093Z,73.18
2023-04-11T02:07:38.631Z,71.88
2023-04-11T02:10:06.629Z,79.30
2023-04-11T02:12:33.439Z,67.13
2023-04-11T02:15:00.188Z,51.30
2023-04-11T02:17:30.866Z,69.18
2023-04-11T02:19:57.923Z,47.97
2023-04-11T02:22:24.954Z,58.20
2023-04-11T02:24:51.655Z,67.25
2023-04-11T02:27:18.198Z,59.85
2023-04-11T02:29:44.762Z,55.15
2023-04-11T02:32:11.415Z,54.97
2023-04-11T02:34:38.377Z,62.88
2023-04-11T02:37:05.016Z,56.95
2023-04-11T02:39:33.907Z,51.97
2023-04-11T02:42:00.909Z,39.70
2023-04-11T02:44:29.305Z,33.65
2023-04-11T02:46:57.963Z,47.33
2023-04-11T02:49:25.467Z,36.50
2023-04-11T02:51:53.163Z,40.10
2023-04-11T02:54:19.750Z,43.92
2023-04-11T02:56:46.867Z,41.42
2023-04-11T02:59:13.851Z,69.60
2023-04-11T03:01:41.559Z,59.08
2023-04-11T03:04:08.708Z,46.60
2023-04-11T03:06:44.846Z,36.53
2023-04-11T03:09:12.146Z,49.83
2023-04-11T03:11:38.713Z,47.35
2023-04-11T03:14:05.618Z,38.22
2023-04-11T03:16:32.907Z,46.58
2023-04-11T03:18:59.827Z,48.10
2023-04-11T03:21:27.293Z,39.30
2023-04-11T03:23:54.301Z,45.63
2023-04-11T03:26:21.767Z,56.97
2023-04-11T03:28:48.373Z,38.35
2023-04-11T03:31:19.001Z,54.80
2023-04-11T03:33:46.803Z,44.75
2023-04-11T03:36:13.739Z,55.83
2023-04-11T03:38:40.993Z,61.30
2023-04-11T03:41:07.834Z,50.33
2023-04-11T03:43:34.362Z,47.53
2023-04-11T03:46:01.592Z,48.17
2023-04-11T03:48:37.028Z,45.38
2023-04-11T03:51:07.861Z,45.15
2023-04-11T03:53:44.066Z,47.45
2023-04-11T03:56:23.264Z,53.35
2023-04-11T03:58:50.148Z,61.28
2023-04-11T04:01:19.023Z,62.60
2023-04-11T04:03:47.713Z,73.72
2023-04-11T04:06:14.537Z,67.75
2023-04-11T04:08:41.154Z,78.13
2023-04-11T04:11:07.846Z,78.70
2023-04-11T04:13:36.519Z,70.72
2023-04-11T04:16:17.660Z,61.83
2023-04-11T04:18:50.183Z,59.50
2023-04-11T04:21:17.912Z,63.90
2023-04-11T04:23:47.685Z,61.03
2023-04-11T04:26:49.985Z,44.97
2023-04-11T04:29:46.282Z,57.92
2023-04-11T04:32:23.029Z,51.53
2023-04-11T04:34:57.640Z,51.03
2023-04-11T04:37:45.575Z,48.00
2023-04-11T04:40:41.983Z,64.55
2023-04-11T04:43:18.393Z,48.80
2023-04-11T04:45:58.428Z,62.50
2023-04-11T04:48:35.264Z,56.67
2023-04-11T04:51:04.280Z,83.07
2023-04-11T04:53:34.872Z,57.33
2023-04-11T04:56:02.238Z,60.95
2023-04-11T04:58:31.405Z,50.63
2023-04-11T05:01:02.526Z,63.13
2023-04-11T05:03:34.662Z,59.50
2023-04-11T05:06:03.887Z,63.80
2023-04-11T05:08:31.411Z,55.03
2023-04-11T05:11:01.370Z,55.17
2023-04-11T05:13:28.406Z,58.55
2023-04-11T05:15:54.995Z,55.75
2023-04-11T05:18:25.473Z,61.35
2023-04-11T05:20:52.090Z,64.70
2023-04-11T05:23:22.670Z,77.80
2023-04-11T05:25:51.485Z,74.47
2023-04-11T05:28:18.234Z,58.50
2023-04-11T05:30:45.596Z,99.85
2023-04-11T05:33:14.588Z,82.95
2023-04-11T05:35:43.131Z,58.67
2023-04-11T05:38:10.003Z,77.30
2023-04-11T05:40:37.107Z,79.28
2023-04-11T05:43:03.711Z,62.47
2023-04-11T05:45:30.323Z,76.30
2023-04-11T05:47:57.180Z,50.85
2023-04-11T05:50:24.049Z,48.40
2023-04-11T05:52:53.298Z,48.40
2023-04-11T05:55:19.943Z,41.83
2023-04-11T05:57:46.786Z,53.53
2023-04-11T06:00:16.328Z,48.30
2023-04-11T06:02:43.462Z,47.58
2023-04-11T06:05:12.120Z,40.45
2023-04-11T06:07:39.988Z,56.47
2023-04-11T06:10:07.551Z,38.78
2023-04-11T06:12:34.139Z,43.72
2023-04-11T06:15:01.735Z,48.30
2023-04-11T06:17:28.300Z,45.30
2023-04-11T06:19:54.976Z,38.30
2023-04-11T06:22:22.916Z,33.10
2023-04-11T06:24:49.750Z,33.72
2023-04-11T06:27:16.435Z,35.67
2023-04-11T06:29:43.588Z,37.85
2023-04-11T06:32:11.895Z,38.45
2023-04-11T06:34:40.542Z,35.78
2023-04-11T06:37:08.030Z,37.72
2023-04-11T06:39:35.698Z,39.53
2023-04-11T06:42:03.361Z,39.67
2023-04-11T06:44:32.360Z,38.60
2023-04-11T06:46:59.337Z,38.97
2023-04-11T06:49:28.127Z,34.30
2023-04-11T06:51:55.843Z,37.80
2023-04-11T06:54:22.956Z,37.95
2023-04-11T06:56:52.162Z,35.70
2023-04-11T06:59:20.218Z,36.22
2023-04-11T07:01:47.034Z,37.47
2023-04-11T07:04:13.762Z,37.95
2023-04-11T07:06:40.812Z,34.15
2023-04-11T07:09:09.543Z,34.58
2023-04-11T07:11:36.284Z,33.75
2023-04-11T07:14:02.895Z,34.45
2023-04-11T07:16:29.596Z,32.28
2023-04-11T07:18:56.540Z,32.58
2023-04-11T07:21:23.180Z,28.90
2023-04-11T07:23:49.790Z,27.85
2023-04-11T07:26:17.863Z,29.00
2023-04-11T07:28:45.127Z,31.30
2023-04-11T07:31:12.599Z,27.67
2023-04-11T07:33:42.437Z,26.02
2023-04-11T07:36:09.513Z,23.13
2023-04-11T07:38:37.566Z,18.73
2023-04-11T07:41:05.203Z,19.63
2023-04-11T07:43:32.022Z,19.30
2023-04-11T07:45:59.689Z,18.02
2023-04-11T07:48:27.920Z,21.10
2023-04-11T07:50:55.249Z,21.33
2023-04-11T07:53:25.075Z,20.73
2023-04-11T07:55:51.718Z,24.55
2023-04-11T07:58:18.209Z,18.70
2023-04-11T08:00:44.833Z,21.40
2023-04-11T08:03:13.363Z,20.95
2023-04-11T08:05:40.369Z,18.13
2023-04-11T08:08:07.458Z,15.77
2023-04-11T08:10:34.222Z,15.77
2023-04-11T08:13:00.977Z,16.48
2023-04-11T08:15:27.604Z,15.07
2023-04-11T08:17:57.338Z,13.43
2023-04-11T08:20:24.694Z,15.20
2023-04-11T08:22:51.326Z,13.95
2023-04-11T08:25:19.976Z,14.70
2023-04-11T08:27:46.574Z,15.68
2023-04-11T08:30:13.886Z,13.88
2023-04-11T08:32:43.500Z,15.18
2023-04-11T08:35:10.541Z,13.55
2023-04-11T08:37:37.033Z,13.68
2023-04-11T08:40:06.831Z,13.50
2023-04-11T08:42:34.270Z,13.85
2023-04-11T08:45:04.721Z,12.55
2023-04-11T08:47:32.048Z,9.63
2023-04-11T08:49:58.589Z,12.15
2023-04-11T08:52:25.930Z,10.93
2023-04-11T08:54:56.822Z,12.93
2023-04-11T08:57:31.416Z,10.50
2023-04-11T09:00:25.982Z,11.98
2023-04-11T09:02:59.445Z,12.00
2023-04-11T09:05:54.447Z,10.35
2023-04-11T09:08:21.097Z,10.45
2023-04-11T09:10:47.650Z,10.50
2023-04-11T09:13:26.792Z,7.07
2023-04-11T09:16:06.502Z,7.47
2023-04-11T09:18:37.057Z,8.15
2023-04-11T09:21:06.487Z,8.02
2023-04-11T09:23:33.539Z,8.20
2023-04-11T09:26:00.210Z,7.47
2023-04-11T09:28:27.020Z,14.15
2023-04-11T09:30:55.706Z,7.80
2023-04-11T09:33:25.089Z,7.50
2023-04-11T09:35:53.831Z,26.15
2023-04-11T09:38:36.610Z,39.58
2023-04-11T09:41:04.476Z,23.75
2023-04-11T09:43:55.883Z,7.47
2023-04-11T09:46:22.822Z,7.50
2023-04-11T09:48:51.138Z,7.18
2023-04-11T09:51:34.330Z,7.80
2023-04-11T09:54:03.913Z,7.45
2023-04-11T09:56:31.415Z,7.35
2023-04-11T09:58:59.942Z,9.18
2023-04-11T10:01:27.230Z,8.07
2023-04-11T10:03:56.121Z,8.48
2023-04-11T10:06:33.759Z,7.60
2023-04-11T10:09:08.608Z,10.25
2023-04-11T10:11:36.107Z,7.53
2023-04-11T10:14:05.418Z,8.68
2023-04-11T10:16:34.279Z,8.13
2023-04-11T10:19:01.067Z,8.20
2023-04-11T10:21:27.578Z,7.40
2023-04-11T10:24:16.543Z,8.10
2023-04-11T10:26:59.367Z,7.38
2023-04-11T10:29:29.357Z,7.35
2023-04-11T10:32:08.678Z,7.63
2023-04-11T10:34:38.729Z,7.72
2023-04-11T10:37:12.046Z,12.05
2023-04-11T10:39:53.920Z,7.30
2023-04-11T10:42:29.942Z,6.90
2023-04-11T10:45:17.800Z,6.38
2023-04-11T10:48:01.157Z,6.32
2023-04-11T10:50:28.096Z,6.38
2023-04-11T10:52:56.630Z,7.63
2023-04-11T10:55:24.718Z,7.00
2023-04-11T10:58:10.068Z,10.20
2023-04-11T11:00:51.328Z,16.65
2023-04-11T11:03:20.075Z,5.93
2023-04-11T11:05:47.505Z,13.50
2023-04-11T11:08:14.064Z,5.57
2023-04-11T11:10:48.683Z,5.75
2023-04-11T11:13:16.542Z,7.13
2023-04-11T11:15:48.374Z,8.13
2023-04-11T11:20:45.423Z,6.45
2023-04-11T11:23:12.126Z,5.95
2023-04-11T11:25:38.827Z,5.88
2023-04-11T11:28:09.565Z,5.95
2023-04-11T11:30:37.003Z,5.68
2023-04-11T11:33:18.084Z,5.78
2023-04-11T11:35:55.750Z,6.72
2023-04-11T11:38:26.647Z,6.63
2023-04-11T11:40:53.793Z,5.38
2023-04-11T11:43:20.800Z,6.35
2023-04-11T11:46:07.380Z,5.57
2023-04-11T11:48:35.512Z,77.03
2023-04-11T11:51:05.399Z,6.57
2023-04-11T11:53:32.170Z,10.98
2023-04-11T11:55:59.467Z,8.02
2023-04-11T11:58:26.440Z,6.82
2023-04-11T12:00:53.671Z,7.05
2023-04-11T12:03:22.992Z,6.03
2023-04-11T12:05:52.787Z,7.70
2023-04-11T12:08:22.041Z,9.52
2023-04-11T12:10:50.300Z,5.85
2023-04-11T12:13:25.474Z,5.68
2023-04-11T12:15:55.102Z,5.68
2023-04-11T12:18:26.218Z,4.55
2023-04-11T12:20:53.802Z,5.33
2023-04-11T12:23:21.231Z,5.20
2023-04-11T12:25:47.855Z,4.90
2023-04-11T12:28:14.485Z,16.80
2023-04-11T12:30:41.643Z,5.45
2023-04-11T12:33:08.410Z,6.65
2023-04-11T12:35:35.012Z,14.27
2023-04-11T12:38:02.268Z,67.30
2023-04-11T12:40:30.031Z,23.73
2023-04-11T12:42:57.503Z,14.43
2023-04-11T12:45:25.097Z,8.55
2023-04-11T12:47:51.838Z,7.32
2023-04-11T12:50:18.713Z,5.30
2023-04-11T12:52:45.456Z,4.90
2023-04-11T12:55:13.345Z,5.68
2023-04-11T12:57:41.414Z,6.65
2023-04-11T13:00:12.737Z,5.25
2023-04-11T13:02:43.789Z,27.88
2023-04-11T13:05:15.369Z,23.92
2023-04-11T13:07:44.654Z,10.13
2023-04-11T13:10:11.938Z,6.18
2023-04-11T13:12:43.851Z,16.98
2023-04-11T13:15:12.302Z,51.25
2023-04-11T13:17:39.064Z,17.95
2023-04-11T13:20:07.821Z,13.18
2023-04-11T13:22:34.553Z,18.00
2023-04-11T13:25:01.156Z,33.15
2023-04-11T13:27:27.864Z,5.97
2023-04-11T13:29:54.488Z,5.22
2023-04-11T13:32:21.437Z,5.10
2023-04-11T13:34:48.066Z,5.25
2023-04-11T13:37:14.781Z,5.97
2023-04-11T13:39:41.349Z,5.05
2023-04-11T13:42:08.045Z,5.40
2023-04-11T13:44:34.614Z,5.57
2023-04-11T13:47:02.759Z,5.63
2023-04-11T13:49:29.585Z,6.00
2023-04-11T13:51:56.274Z,5.55
2023-04-11T13:54:22.878Z,5.13
2023-04-11T13:56:49.557Z,6.88
2023-04-11T13:59:16.438Z,6.18
2023-04-11T14:01:43.082Z,5.72
2023-04-11T14:04:12.170Z,6.45
2023-04-11T14:06:39.758Z,5.45
2023-04-11T14:09:06.350Z,6.30
2023-04-11T14:11:33.383Z,5.35
2023-04-11T14:13:59.962Z,6.30
2023-04-11T14:16:26.661Z,6.35
2023-04-11T14:18:53.388Z,4.97
2023-04-11T14:21:22.817Z,5.72
2023-04-11T14:23:49.418Z,5.28
2023-04-11T14:26:16.579Z,5.40
2023-04-11T14:28:43.140Z,5.63
2023-04-11T14:31:09.853Z,6.25
2023-04-11T14:33:36.940Z,6.30
2023-04-11T14:36:03.710Z,6.10
2023-04-11T14:38:30.630Z,5.18
2023-04-11T14:40:57.284Z,6.50
2023-04-11T14:43:24.169Z,5.20
2023-04-11T14:45:55.248Z,6.10
2023-04-11T14:48:23.979Z,6.20
2023-04-11T14:50:50.503Z,5.15
2023-04-11T14:53:17.107Z,5.68
2023-04-11T14:55:44.678Z,6.20
2023-04-11T14:58:11.452Z,5.80
2023-04-11T15:00:38.066Z,5.85
2023-04-11T15:03:04.812Z,6.50
2023-04-11T15:05:31.474Z,6.82
2023-04-11T15:07:58.101Z,5.97
2023-04-11T15:10:25.435Z,6.25
2023-04-11T15:12:52.096Z,7.97
2023-04-11T15:15:18.743Z,13.00
2023-04-11T15:17:47.352Z,11.73
2023-04-11T15:20:15.166Z,8.88
2023-04-11T15:22:44.129Z,9.13
2023-04-11T15:25:13.672Z,7.55
2023-04-11T15:27:41.102Z,6.78
2023-04-11T15:30:08.519Z,6.80
2023-04-11T15:32:35.390Z,10.73
2023-04-11T15:35:02.562Z,7.32
2023-04-11T15:37:29.250Z,7.18
2023-04-11T15:39:57.665Z,6.78
2023-04-11T15:42:24.535Z,8.48
2023-04-11T15:44:51.664Z,15.13
2023-04-11T15:47:18.488Z,15.30
2023-04-11T15:49:45.208Z,10.88
2023-04-11T15:52:12.222Z,8.68
2023-04-11T15:54:38.858Z,8.80
2023-04-11T15:57:05.607Z,9.05
2023-04-11T15:59:33.401Z,10.73
2023-04-11T16:02:00.122Z,9.00
2023-04-11T16:04:27.164Z,10.02
2023-04-11T16:06:54.329Z,11.63
2023-04-11T16:09:21.064Z,9.88
2023-04-11T16:11:48.978Z,11.48
2023-04-11T16:14:15.544Z,11.43
2023-04-11T16:16:45.426Z,10.38
2023-04-11T16:19:11.971Z,9.90
2023-04-11T16:21:38.847Z,7.68
2023-04-11T16:24:05.860Z,6.75
2023-04-11T16:26:32.393Z,6.93
2023-04-11T16:28:58.993Z,6.43
2023-04-11T16:31:25.675Z,6.07
2023-04-11T16:33:53.222Z,5.50
2023-04-11T16:36:20.510Z,4.28
2023-04-11T16:38:49.579Z,3.03
2023-04-11T16:41:17.378Z,2.88
2023-04-11T16:43:44.592Z,3.00
2023-04-11T16:46:13.794Z,3.35
2023-04-11T16:48:45.015Z,2.83
2023-04-11T16:51:12.234Z,3.00
2023-04-11T16:53:39.709Z,3.55
2023-04-11T16:56:06.721Z,3.53
2023-04-11T16:58:33.661Z,4.28
2023-04-11T17:01:01.419Z,4.00
2023-04-11T17:03:28.355Z,3.75
2023-04-11T17:05:55.296Z,4.72
2023-04-11T17:08:22.003Z,3.50
2023-04-11T17:10:48.757Z,5.53
2023-04-11T17:13:17.953Z,5.15
2023-04-11T17:15:47.404Z,4.88
2023-04-11T17:18:14.914Z,4.63
2023-04-11T17:20:43.420Z,5.45
2023-04-11T17:23:10.280Z,5.63
2023-04-11T17:25:37.259Z,5.25
2023-04-11T17:28:04.085Z,5.47
2023-04-11T17:30:31.971Z,5.38
2023-04-11T17:32:59.844Z,5.82
2023-04-11T17:35:28.309Z,6.43
2023-04-11T17:37:55.325Z,7.03
2023-04-11T17:40:24.653Z,6.10
2023-04-11T17:42:51.486Z,6.22
2023-04-11T17:45:19.628Z,265.50
2023-04-11T17:47:47.553Z,6.97
2023-04-11T17:50:15.089Z,6.30
2023-04-11T17:52:43.822Z,5.47
2023-04-11T17:55:12.827Z,5.90
2023-04-11T17:57:39.642Z,7.18
2023-04-11T18:00:22.386Z,7.05
2023-04-11T18:02:52.821Z,5.82
2023-04-11T18:05:24.540Z,6.35
2023-04-11T18:07:54.773Z,5.88
2023-04-11T18:10:21.996Z,7.32
2023-04-11T18:12:52.971Z,5.88
2023-04-11T18:15:24.220Z,6.00
2023-04-11T18:17:52.000Z,7.37
2023-04-11T18:20:21.927Z,8.68
2023-04-11T18:22:51.748Z,8.27
2023-04-11T18:25:18.542Z,7.72
2023-04-11T18:27:51.600Z,10.00
2023-04-11T18:30:18.820Z,7.85
2023-04-11T18:32:52.937Z,7.72
2023-04-11T18:35:20.507Z,9.27
2023-04-11T18:37:47.292Z,8.55
2023-04-11T18:40:14.672Z,7.22
2023-04-11T18:42:54.905Z,8.27
2023-04-11T18:45:24.774Z,11.23
2023-04-11T18:47:55.157Z,7.18
2023-04-11T18:50:23.001Z,4.82
2023-04-11T18:52:53.935Z,5.82
2023-04-11T18:55:23.723Z,4.63
2023-04-11T18:57:53.530Z,5.50
2023-04-11T19:02:50.620Z,5.50
2023-04-11T19:05:19.226Z,5.15
2023-04-11T19:07:48.852Z,4.78
2023-04-11T19:10:15.780Z,5.45
2023-04-11T19:12:45.306Z,6.03
2023-04-11T19:15:12.721Z,5.47
2023-04-11T19:17:49.952Z,6.20
2023-04-11T19:20:19.438Z,3.85
2023-04-11T19:22:49.692Z,4.43
2023-04-11T19:25:16.477Z,4.50
2023-04-11T19:27:44.527Z,5.00
2023-04-11T19:30:20.499Z,3.92
2023-04-11T19:32:51.145Z,4.20
2023-04-11T19:35:21.506Z,3.90
2023-04-11T19:37:55.007Z,3.77
2023-04-11T19:40:28.024Z,3.45
2023-04-11T19:43:01.764Z,3.88
2023-04-11T19:45:32.455Z,4.20
2023-04-11T19:48:03.139Z,2.72
2023-04-11T19:50:30.225Z,3.33
2023-04-11T19:52:57.318Z,2.80
2023-04-11T19:55:31.212Z,3.58
2023-04-11T19:57:58.018Z,2.67
2023-04-11T20:00:31.985Z,2.75
2023-04-11T20:03:04.647Z,3.20
2023-04-11T20:05:34.639Z,2.03
2023-04-11T20:08:01.502Z,3.47
2023-04-11T20:10:48.262Z,2.67
2023-04-11T20:13:17.393Z,2.95
2023-04-11T20:15:49.873Z,3.55
2023-04-11T20:18:24.198Z,2.80
2023-04-11T20:20:51.575Z,2.53
2023-04-11T20:23:19.610Z,3.25
2023-04-11T20:25:47.438Z,3.25
2023-04-11T20:28:14.173Z,3.03
2023-04-11T20:30:41.060Z,2.90
2023-04-11T20:33:07.798Z,2.92
2023-04-11T20:35:34.516Z,4.07
2023-04-11T20:38:01.548Z,2.92
2023-04-11T20:40:28.446Z,3.40
2023-04-11T20:42:56.672Z,3.25
2023-04-11T20:45:25.608Z,5.18
2023-04-11T20:47:52.898Z,4.28
2023-04-11T20:50:23.871Z,5.70
2023-04-11T20:52:51.235Z,6.40
2023-04-11T20:55:17.973Z,7.18
2023-04-11T20:57:45.017Z,8.55
2023-04-11T21:00:16.866Z,9.80
2023-04-11T21:02:46.045Z,11.93
2023-04-11T21:05:13.941Z,12.45
2023-04-11T21:07:41.480Z,13.13
2023-04-11T21:10:08.739Z,13.57
2023-04-11T21:12:35.845Z,14.00
2023-04-11T21:15:03.629Z,11.98
2023-04-11T21:17:34.051Z,13.68
2023-04-11T21:20:02.386Z,13.07
2023-04-11T21:22:28.985Z,13.57
2023-04-11T21:24:55.709Z,13.25
2023-04-11T21:27:22.286Z,12.82
2023-04-11T21:29:48.865Z,14.82
2023-04-11T21:32:15.502Z,14.70
2023-04-11T21:34:42.094Z,13.98
2023-04-11T21:37:08.658Z,13.43
2023-04-11T21:39:35.279Z,14.57
2023-04-11T21:42:01.861Z,13.38
2023-04-11T21:44:28.740Z,13.55
2023-04-11T21:46:55.395Z,13.95
2023-04-11T21:49:22.099Z,14.82
2023-04-11T21:51:48.657Z,12.13
2023-04-11T21:54:15.969Z,13.60
2023-04-11T21:56:44.552Z,13.63
2023-04-11T21:59:11.151Z,14.15
2023-04-11T22:01:37.912Z,14.90
2023-04-11T22:04:04.955Z,12.73
2023-04-11T22:06:34.885Z,11.63
2023-04-11T22:09:05.437Z,13.32
2023-04-11T22:11:32.587Z,12.10
2023-04-11T22:14:00.816Z,14.57
2023-04-11T22:16:31.477Z,16.13
2023-04-11T22:19:00.688Z,18.02
2023-04-11T22:21:28.395Z,20.13
2023-04-11T22:23:57.219Z,19.83
2023-04-11T22:26:34.817Z,21.98
2023-04-11T22:29:05.233Z,22.42
2023-04-11T22:31:38.206Z,24.30
2023-04-11T22:34:05.580Z,25.27
2023-04-11T22:36:35.866Z,26.33
2023-04-11T22:39:06.981Z,22.67
2023-04-11T22:41:35.382Z,20.00
2023-04-11T22:44:02.549Z,20.98
2023-04-11T22:46:31.370Z,14.20
2023-04-11T22:48:57.928Z,16.65
2023-04-11T22:51:24.915Z,16.27
2023-04-11T22:53:53.578Z,14.43
2023-04-11T22:56:20.669Z,15.55
2023-04-11T22:58:47.194Z,16.80
2023-04-11T23:01:14.518Z,15.63
2023-04-11T23:03:42.097Z,16.50
2023-04-11T23:06:08.986Z,17.30
2023-04-11T23:08:35.853Z,16.08
2023-04-11T23:11:03.016Z,19.05
2023-04-11T23:13:29.918Z,16.88
2023-04-11T23:15:56.882Z,17.80
2023-04-11T23:18:23.390Z,18.80
2023-04-11T23:20:50.563Z,20.75
2023-04-11T23:23:17.574Z,22.05
2023-04-11T23:25:45.318Z,21.48
2023-04-11T23:28:12.264Z,22.52
2023-04-11T23:30:39.532Z,22.88
2023-04-11T23:33:08.600Z,22.67
2023-04-11T23:35:35.950Z,23.75
2023-04-11T23:38:03.392Z,25.13
2023-04-11T23:40:30.464Z,27.02
2023-04-11T23:42:57.947Z,23.75
2023-04-11T23:45:25.314Z,25.02
2023-04-11T23:47:52.450Z,24.08
2023-04-11T23:50:19.361Z,24.48
2023-04-11T23:52:46.887Z,25.02
2023-04-11T23:55:13.601Z,26.95
2023-04-11T23:57:40.579Z,26.05
